createdAt,value
2022-08-03T08:16:06.481Z,100648.59
2022-08-03T08:18:09.248Z,100648.59
2022-08-03T08:20:15.661Z,100651.66
2022-08-03T08:22:30.013Z,100654.19
2022-08-03T08:24:34.114Z,100652.69
2022-08-03T08:26:37.277Z,100657.53
2022-08-03T08:28:39.574Z,100657.53
2022-08-03T08:30:42.212Z,100646.19
2022-08-03T08:32:45.133Z,100653.87
2022-08-03T08:34:47.488Z,100651.81
2022-08-03T08:36:50.037Z,100651.66
2022-08-03T08:38:52.441Z,100652.09
2022-08-03T08:40:57.654Z,100647.66
2022-08-03T08:43:00.313Z,100642.19
2022-08-03T08:45:05.216Z,100643.56
2022-08-03T08:47:09.652Z,100644.03
2022-08-03T08:49:17.411Z,100642.72
2022-08-03T08:51:21.462Z,100647.63
2022-08-03T08:53:28.978Z,100636.44
2022-08-03T08:55:58.274Z,100640.78
2022-08-03T08:58:10.964Z,100644.69
2022-08-03T09:00:14.968Z,100642.09
2022-08-03T09:02:18.048Z,100639.50
2022-08-03T09:04:20.604Z,100638.19
2022-08-03T09:06:24.241Z,100640.97
2022-08-03T09:08:26.960Z,100638.41
2022-08-03T09:10:29.680Z,100635.12
2022-08-03T09:12:41.936Z,100637.16
2022-08-03T09:15:00.769Z,100629.28
2022-08-03T09:17:08.632Z,100631.44
2022-08-03T09:19:19.246Z,100627.06
2022-08-03T09:21:32.165Z,100632.00
2022-08-03T09:24:01.481Z,100631.13
2022-08-03T09:26:04.926Z,100631.94
2022-08-03T09:28:10.604Z,100632.69
2022-08-03T09:30:33.324Z,100626.81
2022-08-03T09:32:37.342Z,100627.06
2022-08-03T09:34:40.022Z,100626.56
2022-08-03T09:36:48.292Z,100617.19
2022-08-03T09:39:08.456Z,100626.13
2022-08-03T09:41:17.916Z,100618.38
2022-08-03T09:43:20.468Z,100626.69
2022-08-03T09:45:27.053Z,100615.84
2022-08-03T09:47:32.600Z,100615.41
2022-08-03T09:49:34.992Z,100609.47
2022-08-03T09:52:33.195Z,100604.69
2022-08-03T09:54:03.975Z,100601.03
2022-08-03T09:56:33.784Z,100603.31
2022-08-03T09:58:30.756Z,100606.09
2022-08-03T10:00:33.428Z,100595.75
2022-08-03T10:02:36.853Z,100592.25
2022-08-03T10:04:48.013Z,100590.19
2022-08-03T10:07:10.617Z,100590.00
2022-08-03T10:09:16.614Z,100589.94
2022-08-03T10:11:31.116Z,100590.00
2022-08-03T10:13:34.312Z,100594.75
2022-08-03T10:16:22.021Z,100588.94
2022-08-03T10:17:59.428Z,100583.75
2022-08-03T10:20:03.217Z,100582.75
2022-08-03T10:22:14.779Z,100583.13
2022-08-03T10:24:24.989Z,100579.66
2022-08-03T10:26:27.579Z,100578.00
2022-08-03T10:28:39.192Z,100575.50
2022-08-03T10:30:48.719Z,100575.87
2022-08-03T10:32:55.077Z,100574.00
2022-08-03T10:35:19.719Z,100567.97
2022-08-03T10:37:26.174Z,100566.34
2022-08-03T10:39:29.870Z,100565.97
2022-08-03T10:41:39.903Z,100569.44
2022-08-03T10:43:58.667Z,100577.53
2022-08-03T10:46:03.496Z,100559.94
2022-08-03T10:48:08.023Z,100564.66
2022-08-03T10:50:11.924Z,100554.53
2022-08-03T10:52:32.777Z,100551.66
2022-08-03T10:54:59.720Z,100546.91
2022-08-03T10:57:21.142Z,100547.50
2022-08-03T10:59:46.894Z,100543.91
2022-08-03T11:01:59.881Z,100545.50
2022-08-03T11:04:09.023Z,100547.34
2022-08-03T11:06:21.243Z,100541.28
2022-08-03T11:08:34.958Z,100536.59
2022-08-03T11:10:37.535Z,100531.44
2022-08-03T11:12:42.181Z,100533.50
2022-08-03T11:14:49.084Z,100524.03
2022-08-03T11:17:07.453Z,100525.41
2022-08-03T11:19:19.914Z,100522.09
2022-08-03T11:21:49.320Z,100519.66
2022-08-03T11:24:03.172Z,100520.09
2022-08-03T11:26:09.892Z,100514.25
2022-08-03T11:28:28.744Z,100518.06
2022-08-03T11:30:31.484Z,100518.53
2022-08-03T11:32:48.387Z,100519.63
2022-08-03T11:35:11.522Z,100512.38
2022-08-03T11:37:23.302Z,100510.31
2022-08-03T11:39:46.570Z,100510.44
2022-08-03T11:41:49.186Z,100513.12
2022-08-03T11:43:51.648Z,100516.69
2022-08-03T11:46:02.435Z,100507.03
2022-08-03T11:48:16.939Z,100505.69
2022-08-03T11:50:20.223Z,100505.31
2022-08-03T11:52:27.322Z,100508.63
2022-08-03T11:54:30.453Z,100496.12
2022-08-03T11:56:48.565Z,100486.50
2022-08-03T11:59:00.903Z,100490.69
2022-08-03T12:01:22.870Z,100493.28
2022-08-03T12:03:32.080Z,100484.87
2022-08-03T12:05:42.017Z,100486.75
2022-08-03T12:08:04.759Z,100476.84
2022-08-03T12:10:15.209Z,100473.94
2022-08-03T12:12:17.539Z,100476.03
2022-08-03T12:14:49.050Z,100465.75
2022-08-03T12:16:47.805Z,100467.00
2022-08-03T12:19:01.943Z,100473.63
2022-08-03T12:21:09.814Z,100468.00
2022-08-03T12:23:12.780Z,100471.41
2022-08-03T12:25:39.275Z,100460.78
2022-08-03T12:27:42.355Z,100461.53
2022-08-03T12:29:58.425Z,100458.81
2022-08-03T12:32:01.521Z,100455.00
2022-08-03T12:34:07.207Z,100448.41
2022-08-03T12:36:10.657Z,100445.66
2022-08-03T12:38:13.871Z,100453.31
2022-08-03T12:40:28.164Z,100448.62
2022-08-03T12:42:32.532Z,100450.09
2022-08-03T12:44:36.197Z,100441.44
2022-08-03T12:46:45.410Z,100440.97
2022-08-03T12:49:07.934Z,100441.53
2022-08-03T12:51:11.491Z,100436.25
2022-08-03T12:53:29.053Z,100444.41
2022-08-03T12:55:40.104Z,100443.75
2022-08-03T12:57:57.589Z,100441.19
2022-08-03T13:00:21.433Z,100440.97
2022-08-03T13:02:31.888Z,100441.75
2022-08-03T13:04:36.323Z,100447.03
2022-08-03T13:06:38.786Z,100444.44
2022-08-03T13:08:43.103Z,100443.31
2022-08-03T13:10:46.118Z,100433.81
2022-08-03T13:12:50.071Z,100434.28
2022-08-03T13:14:55.864Z,100438.00
2022-08-03T13:16:58.253Z,100431.75
2022-08-03T13:19:00.508Z,100423.22
2022-08-03T13:21:03.271Z,100424.41
2022-08-03T13:23:05.581Z,100419.44
2022-08-03T13:25:17.414Z,100416.84
2022-08-03T13:27:58.859Z,100424.75
2022-08-03T13:29:43.497Z,100420.13
2022-08-03T13:31:50.501Z,100418.16
2022-08-03T13:33:53.956Z,100415.66
2022-08-03T13:35:56.412Z,100409.97
2022-08-03T13:37:58.732Z,100417.13
2022-08-03T13:40:03.815Z,100413.16
2022-08-03T13:42:08.541Z,100407.41
2022-08-03T13:44:28.867Z,100406.56
2022-08-03T13:46:32.138Z,100407.06
2022-08-03T13:48:37.081Z,100407.34
2022-08-03T13:50:43.047Z,100407.19
2022-08-03T13:52:49.039Z,100405.72
2022-08-03T14:12:07.761Z,100380.59
2022-08-03T14:14:09.216Z,100380.59
2022-08-03T14:16:12.125Z,100379.34
2022-08-03T14:18:28.608Z,100378.06
2022-08-03T14:20:47.727Z,100378.53
2022-08-03T14:25:15.927Z,100363.53
2022-08-03T14:27:23.385Z,100368.78
2022-08-03T14:29:44.061Z,100372.31
2022-08-03T14:32:09.806Z,100364.25
2022-08-03T14:34:17.896Z,100368.66
2022-08-03T14:36:23.537Z,100369.63
2022-08-03T14:38:29.065Z,100362.78
2022-08-03T14:40:39.028Z,100357.00
2022-08-03T14:45:19.850Z,100355.69
2022-08-03T14:50:28.836Z,100360.78
2022-08-03T14:50:31.187Z,100350.22
2022-08-03T14:55:15.198Z,100352.78
2022-08-03T14:57:18.329Z,100345.44
2022-08-03T14:59:23.409Z,100343.66
2022-08-03T15:02:02.240Z,100348.22
2022-08-03T15:03:51.720Z,100344.81
2022-08-03T15:06:10.124Z,100346.75
2022-08-03T15:08:15.020Z,100350.41
2022-08-03T15:10:21.023Z,100354.66
2022-08-03T15:12:54.124Z,100353.31
2022-08-03T15:18:01.261Z,100353.13
2022-08-03T15:20:22.585Z,100346.88
2022-08-03T15:22:35.176Z,100348.16
2022-08-03T15:26:58.643Z,100348.75
2022-08-03T15:29:01.926Z,100343.22
2022-08-03T15:31:05.984Z,100342.03
2022-08-03T15:33:08.769Z,100339.97
2022-08-03T15:35:12.128Z,100338.87
2022-08-03T15:37:16.203Z,100344.16
2022-08-03T15:39:19.219Z,100338.16
2022-08-03T15:41:22.406Z,100339.34
2022-08-03T15:43:25.456Z,100334.28
2022-08-03T15:45:29.461Z,100330.16
2022-08-03T15:47:39.927Z,100335.56
2022-08-03T15:49:44.093Z,100337.19
2022-08-03T15:51:47.982Z,100335.81
2022-08-03T15:53:51.071Z,100337.00
2022-08-03T15:55:54.994Z,100338.75
2022-08-03T15:59:04.117Z,100332.84
2022-08-03T16:00:33.331Z,100334.28
2022-08-03T16:02:39.076Z,100328.03
2022-08-03T16:04:42.944Z,100329.41
2022-08-03T16:06:45.658Z,100322.97
2022-08-03T16:08:50.549Z,100328.16
2022-08-03T16:10:56.259Z,100325.69
2022-08-03T16:13:01.364Z,100326.75
2022-08-03T16:15:07.561Z,100331.19
2022-08-03T16:17:10.318Z,100326.53
2022-08-03T16:19:13.121Z,100325.19
2022-08-03T16:21:19.476Z,100331.75
2022-08-03T16:23:30.460Z,100327.59
2022-08-03T16:25:37.226Z,100326.62
2022-08-03T16:28:00.375Z,100323.19
2022-08-03T16:30:14.263Z,100331.44
2022-08-03T16:32:21.080Z,100334.34
2022-08-03T16:34:27.082Z,100328.09
2022-08-03T16:36:34.630Z,100324.59
2022-08-03T16:38:37.808Z,100326.03
2022-08-03T16:40:41.949Z,100324.59
2022-08-03T16:42:45.102Z,100328.31
2022-08-03T16:44:50.873Z,100329.38
2022-08-03T16:46:54.805Z,100322.56
2022-08-03T16:49:00.686Z,100327.41
2022-08-03T16:51:03.637Z,100329.22
2022-08-03T16:53:09.181Z,100327.28
2022-08-03T16:55:15.363Z,100326.06
2022-08-03T16:57:18.429Z,100324.09
2022-08-03T16:59:44.343Z,100327.38
2022-08-03T17:02:12.241Z,100333.16
2022-08-03T17:04:15.270Z,100336.97
2022-08-03T17:06:20.107Z,100341.28
2022-08-03T17:08:42.925Z,100338.66
2022-08-03T17:11:05.783Z,100336.25
2022-08-03T17:13:08.823Z,100347.75
2022-08-03T17:15:20.014Z,100341.84
2022-08-03T17:17:55.904Z,100351.38
2022-08-03T17:22:50.316Z,100345.53
2022-08-03T17:25:07.632Z,100344.84
2022-08-03T17:28:49.246Z,100354.03
2022-08-03T17:30:01.402Z,100357.06
2022-08-03T17:32:10.072Z,100359.63
2022-08-03T17:34:14.175Z,100360.50
2022-08-03T17:36:22.897Z,100365.00
2022-08-03T17:38:34.731Z,100366.63
2022-08-03T17:40:47.898Z,100367.13
2022-08-03T17:42:53.628Z,100363.53
2022-08-03T17:45:02.458Z,100369.06
2022-08-03T17:47:10.120Z,100374.62
2022-08-03T17:51:59.272Z,100376.28
2022-08-03T17:55:56.382Z,100364.28
2022-08-03T17:57:22.331Z,100364.22
2022-08-03T17:59:51.538Z,100371.16
2022-08-03T18:02:29.798Z,100366.16
2022-08-03T18:04:40.652Z,100369.28
2022-08-03T18:06:56.495Z,100366.06
2022-08-03T18:09:05.106Z,100369.78
2022-08-03T18:11:35.789Z,100375.47
2022-08-03T18:13:58.282Z,100380.19
2022-08-03T18:16:04.539Z,100371.41
2022-08-03T18:18:11.825Z,100374.78
2022-08-03T18:20:34.320Z,100385.47
2022-08-03T18:22:38.737Z,100380.88
2022-08-03T18:24:50.335Z,100385.87
2022-08-03T18:26:55.306Z,100384.12
2022-08-03T18:28:59.015Z,100390.34
2022-08-03T18:31:06.378Z,100391.00
2022-08-03T18:34:16.593Z,100395.09
2022-08-03T18:35:53.717Z,100394.88
2022-08-03T18:38:03.527Z,100392.81
2022-08-03T18:40:14.564Z,100395.50
2022-08-03T18:42:25.873Z,100396.63
2022-08-03T18:44:52.603Z,100396.19
2022-08-03T18:47:16.993Z,100402.28
2022-08-03T18:49:30.884Z,100408.16
2022-08-03T18:51:43.469Z,100410.66
2022-08-03T18:54:02.824Z,100404.41
2022-08-03T18:56:39.029Z,100411.53
2022-08-03T18:59:02.417Z,100411.31
2022-08-03T19:01:58.112Z,100419.66
2022-08-03T19:04:16.941Z,100414.88
2022-08-03T19:06:24.576Z,100422.56
2022-08-03T19:08:36.198Z,100425.25
2022-08-03T19:10:57.860Z,100428.75
2022-08-03T19:13:18.305Z,100426.06
2022-08-03T19:15:36.630Z,100432.28
2022-08-03T19:17:59.041Z,100429.81
2022-08-03T19:20:05.792Z,100434.16
2022-08-03T19:22:31.580Z,100433.13
2022-08-03T19:24:39.714Z,100437.22
2022-08-03T19:26:44.024Z,100439.75
2022-08-03T19:28:56.964Z,100433.31
2022-08-03T19:31:02.662Z,100437.91
2022-08-03T19:33:11.898Z,100439.94
2022-08-03T19:35:18.799Z,100447.19
2022-08-03T19:37:25.495Z,100443.06
2022-08-03T19:39:44.459Z,100448.84
2022-08-03T19:42:09.117Z,100449.28
2022-08-03T19:44:33.186Z,100451.34
2022-08-03T19:46:54.992Z,100453.59
2022-08-03T19:49:10.459Z,100451.72
2022-08-03T19:51:21.716Z,100453.59
2022-08-03T19:53:46.948Z,100457.56
2022-08-03T19:55:53.811Z,100464.19
2022-08-03T19:58:02.784Z,100461.50
2022-08-03T20:00:32.686Z,100463.53
2022-08-03T20:02:44.821Z,100468.84
2022-08-03T20:04:50.244Z,100470.47
2022-08-03T20:07:01.505Z,100468.09
2022-08-03T20:09:06.531Z,100461.06
2022-08-03T20:11:12.653Z,100465.62
2022-08-03T20:13:20.136Z,100464.22
2022-08-03T20:15:31.107Z,100462.75
2022-08-03T20:17:55.343Z,100467.53
2022-08-03T20:19:57.980Z,100461.97
2022-08-03T20:22:02.554Z,100462.16
2022-08-03T20:24:24.550Z,100462.41
2022-08-03T20:26:30.634Z,100460.75
2022-08-03T20:29:09.950Z,100462.47
2022-08-03T20:31:13.906Z,100466.50
2022-08-03T20:33:18.705Z,100467.16
2022-08-03T20:35:22.234Z,100469.19
2022-08-03T20:37:24.801Z,100469.00
2022-08-03T20:39:28.561Z,100469.25
2022-08-03T20:41:35.608Z,100467.81
2022-08-03T20:43:40.662Z,100468.19
2022-08-03T20:45:58.365Z,100469.59
2022-08-03T20:48:07.221Z,100465.03
2022-08-03T20:52:31.677Z,100470.31
2022-08-03T20:54:37.188Z,100464.22
2022-08-03T20:56:40.209Z,100465.78
2022-08-03T20:58:55.251Z,100457.50
2022-08-03T21:00:58.455Z,100457.63
2022-08-03T21:03:01.317Z,100461.97
2022-08-03T21:05:08.687Z,100462.31
2022-08-03T21:07:18.521Z,100468.53
2022-08-03T21:09:33.368Z,100464.41
2022-08-03T21:11:43.430Z,100462.16
2022-08-03T21:12:55.307Z,100368.47
2022-08-03T21:13:58.728Z,100470.00
2022-08-03T21:16:13.470Z,100470.19
2022-08-03T21:18:18.262Z,100470.75
2022-08-03T21:20:23.164Z,100475.22
2022-08-03T21:22:27.610Z,100472.50
2022-08-03T21:24:33.605Z,100475.75
2022-08-03T21:26:39.497Z,100475.91
2022-08-03T21:28:42.820Z,100470.53
2022-08-03T21:30:46.615Z,100482.34
2022-08-03T21:32:52.243Z,100477.75
2022-08-03T21:34:55.189Z,100483.06
2022-08-03T21:36:57.799Z,100487.53
2022-08-03T21:39:01.945Z,100485.31
2022-08-03T21:41:09.639Z,100489.28
2022-08-03T21:43:12.328Z,100495.03
2022-08-03T21:45:17.465Z,100493.22
2022-08-03T21:47:24.648Z,100496.53
2022-08-03T21:50:04.176Z,100494.81
2022-08-03T21:51:57.969Z,100496.16
2022-08-03T21:54:04.610Z,100498.28
2022-08-03T21:56:13.747Z,100497.87
2022-08-03T21:58:21.410Z,100496.12
2022-08-03T22:00:24.008Z,100503.12
2022-08-03T22:02:31.481Z,100503.91
2022-08-03T22:04:53.519Z,100503.44
2022-08-03T22:06:58.387Z,100499.16
2022-08-03T22:09:01.907Z,100510.94
2022-08-03T22:11:04.928Z,100502.25
2022-08-03T22:13:07.500Z,100506.22
2022-08-03T22:15:13.220Z,100503.16
2022-08-03T22:17:53.769Z,100502.69
2022-08-03T22:19:39.286Z,100507.19
2022-08-03T22:21:48.819Z,100503.78
